sensor_id;sensor_type;location;lat;lon;timestamp;pressure;altitude;pressure_sealevel;temperature;humidity
55070;BME280;40967;52.070;8.596;2023-02-12T00:00:35;102621.97;;;7.53;100.00
55070;BME280;40967;52.070;8.596;2023-02-12T00:03:00;102612.38;;;7.51;100.00
55070;BME280;40967;52.070;8.596;2023-02-12T00:05:26;102597.81;;;7.45;100.00
55070;BME280;40967;52.070;8.596;2023-02-12T00:07:52;102621.13;;;7.53;100.00
55070;BME280;40967;52.070;8.596;2023-02-12T00:10:18;102613.41;;;7.50;100.00
55070;BME280;40967;52.070;8.596;2023-02-12T00:12:43;102622.97;;;7.52;100.00
55070;BME280;40967;52.070;8.596;2023-02-12T00:15:09;102615.06;;;7.51;100.00
55070;BME280;40967;52.070;8.596;2023-02-12T00:17:34;102610.09;;;7.54;100.00
55070;BME280;40967;52.070;8.596;2023-02-12T00:20:15;102615.94;;;7.58;100.00
55070;BME280;40967;52.070;8.596;2023-02-12T00:22:50;102617.84;;;7.57;100.00
55070;BME280;40967;52.070;8.596;2023-02-12T00:25:15;102616.59;;;7.60;100.00
55070;BME280;40967;52.070;8.596;2023-02-12T00:27:43;102611.59;;;7.57;100.00
55070;BME280;40967;52.070;8.596;2023-02-12T00:30:08;102619.94;;;7.62;100.00
55070;BME280;40967;52.070;8.596;2023-02-12T00:32:34;102612.59;;;7.56;100.00
55070;BME280;40967;52.070;8.596;2023-02-12T00:35:01;102614.28;;;7.57;100.00
55070;BME280;40967;52.070;8.596;2023-02-12T00:37:26;102628.00;;;7.55;100.00
55070;BME280;40967;52.070;8.596;2023-02-12T00:39:52;102623.63;;;7.54;100.00
55070;BME280;40967;52.070;8.596;2023-02-12T00:42:17;102622.56;;;7.49;100.00
55070;BME280;40967;52.070;8.596;2023-02-12T00:44:43;102627.13;;;7.48;100.00
55070;BME280;40967;52.070;8.596;2023-02-12T00:47:08;102632.09;;;7.45;100.00
55070;BME280;40967;52.070;8.596;2023-02-12T00:49:34;102629.19;;;7.46;100.00
55070;BME280;40967;52.070;8.596;2023-02-12T00:52:01;102631.47;;;7.49;100.00
55070;BME280;40967;52.070;8.596;2023-02-12T00:54:27;102620.19;;;7.39;100.00
55070;BME280;40967;52.070;8.596;2023-02-12T00:56:54;102628.97;;;7.48;100.00
55070;BME280;40967;52.070;8.596;2023-02-12T00:59:21;102639.38;;;7.51;100.00
55070;BME280;40967;52.070;8.596;2023-02-12T01:01:46;102631.88;;;7.46;100.00
55070;BME280;40967;52.070;8.596;2023-02-12T01:04:12;102648.72;;;7.48;100.00
55070;BME280;40967;52.070;8.596;2023-02-12T01:06:37;102632.50;;;7.42;100.00
55070;BME280;40967;52.070;8.596;2023-02-12T01:09:02;102631.44;;;7.43;100.00
55070;BME280;40967;52.070;8.596;2023-02-12T01:11:28;102631.84;;;7.40;100.00
55070;BME280;40967;52.070;8.596;2023-02-12T01:13:53;102639.34;;;7.44;100.00
55070;BME280;40967;52.070;8.596;2023-02-12T01:16:22;102638.34;;;7.45;100.00
55070;BME280;40967;52.070;8.596;2023-02-12T01:18:49;102642.88;;;7.45;100.00
55070;BME280;40967;52.070;8.596;2023-02-12T01:21:20;102637.88;;;7.42;100.00
55070;BME280;40967;52.070;8.596;2023-02-12T01:23:46;102643.66;;;7.39;100.00
55070;BME280;40967;52.070;8.596;2023-02-12T01:26:13;102642.25;;;7.43;100.00
55070;BME280;40967;52.070;8.596;2023-02-12T01:28:40;102645.16;;;7.41;100.00
55070;BME280;40967;52.070;8.596;2023-02-12T01:31:10;102648.69;;;7.42;100.00
55070;BME280;40967;52.070;8.596;2023-02-12T01:33:36;102659.50;;;7.42;100.00
55070;BME280;40967;52.070;8.596;2023-02-12T01:36:02;102654.91;;;7.42;100.00
55070;BME280;40967;52.070;8.596;2023-02-12T01:38:27;102654.91;;;7.42;100.00
55070;BME280;40967;52.070;8.596;2023-02-12T01:41:01;102654.25;;;7.40;100.00
55070;BME280;40967;52.070;8.596;2023-02-12T01:43:26;102656.41;;;7.45;100.00
55070;BME280;40967;52.070;8.596;2023-02-12T01:45:52;102640.31;;;7.37;100.00
55070;BME280;40967;52.070;8.596;2023-02-12T01:48:19;102646.16;;;7.40;100.00
55070;BME280;40967;52.070;8.596;2023-02-12T01:50:47;102661.78;;;7.45;100.00
55070;BME280;40967;52.070;8.596;2023-02-12T01:53:14;102664.50;;;7.45;100.00
55070;BME280;40967;52.070;8.596;2023-02-12T01:55:46;102639.72;;;7.35;100.00
55070;BME280;40967;52.070;8.596;2023-02-12T01:58:12;102643.09;;;7.43;100.00
55070;BME280;40967;52.070;8.596;2023-02-12T02:00:38;102652.00;;;7.44;100.00
55070;BME280;40967;52.070;8.596;2023-02-12T02:03:06;102647.84;;;7.41;100.00
55070;BME280;40967;52.070;8.596;2023-02-12T02:05:42;102648.63;;;7.35;100.00
55070;BME280;40967;52.070;8.596;2023-02-12T02:08:09;102647.84;;;7.41;100.00
55070;BME280;40967;52.070;8.596;2023-02-12T02:10:34;102645.34;;;7.40;100.00
55070;BME280;40967;52.070;8.596;2023-02-12T02:13:01;102639.94;;;7.40;100.00
55070;BME280;40967;52.070;8.596;2023-02-12T02:15:47;102631.16;;;7.31;100.00
55070;BME280;40967;52.070;8.596;2023-02-12T02:18:34;102637.25;;;7.40;100.00
55070;BME280;40967;52.070;8.596;2023-02-12T02:21:23;102639.94;;;7.40;100.00
55070;BME280;40967;52.070;8.596;2023-02-12T02:24:25;102637.44;;;7.38;100.00
55070;BME280;40967;52.070;8.596;2023-02-12T02:30:06;102638.06;;;7.40;100.00
55070;BME280;40967;52.070;8.596;2023-02-12T02:32:41;102634.75;;;7.38;100.00
55070;BME280;40967;52.070;8.596;2023-02-12T02:35:18;102637.81;;;7.35;100.00
55070;BME280;40967;52.070;8.596;2023-02-12T02:38:05;102633.66;;;7.33;100.00
55070;BME280;40967;52.070;8.596;2023-02-12T02:40:52;102622.03;;;7.32;100.00
55070;BME280;40967;52.070;8.596;2023-02-12T02:43:25;102628.06;;;7.34;100.00
55070;BME280;40967;52.070;8.596;2023-02-12T02:45:58;102626.56;;;7.32;100.00
55070;BME280;40967;52.070;8.596;2023-02-12T02:48:33;102622.22;;;7.31;100.00
55070;BME280;40967;52.070;8.596;2023-02-12T02:51:04;102598.22;;;7.15;100.00
55070;BME280;40967;52.070;8.596;2023-02-12T02:53:52;102618.03;;;7.28;100.00
55070;BME280;40967;52.070;8.596;2023-02-12T02:56:22;102627.63;;;7.31;100.00
55070;BME280;40967;52.070;8.596;2023-02-12T02:58:54;102610.94;;;7.21;100.00
55070;BME280;40967;52.070;8.596;2023-02-12T03:01:34;102616.97;;;7.23;100.00
55070;BME280;40967;52.070;8.596;2023-02-12T03:06:31;102625.69;;;7.25;100.00
55070;BME280;40967;52.070;8.596;2023-02-12T03:09:03;102630.09;;;7.26;100.00
55070;BME280;40967;52.070;8.596;2023-02-12T03:11:32;102625.69;;;7.25;100.00
55070;BME280;40967;52.070;8.596;2023-02-12T03:14:08;102625.69;;;7.25;100.00
55070;BME280;40967;52.070;8.596;2023-02-12T03:16:53;102624.63;;;7.19;100.00
55070;BME280;40967;52.070;8.596;2023-02-12T03:19:24;102629.44;;;7.24;100.00
55070;BME280;40967;52.070;8.596;2023-02-12T03:22:03;102619.03;;;7.21;100.00
55070;BME280;40967;52.070;8.596;2023-02-12T03:24:41;102623.19;;;7.23;100.00
55070;BME280;40967;52.070;8.596;2023-02-12T03:29:46;102616.72;;;7.18;100.00
55070;BME280;40967;52.070;8.596;2023-02-12T03:37:17;102625.31;;;7.28;100.00
55070;BME280;40967;52.070;8.596;2023-02-12T03:40:06;102625.69;;;7.25;100.00
55070;BME280;40967;52.070;8.596;2023-02-12T03:42:45;102616.34;;;7.21;100.00
55070;BME280;40967;52.070;8.596;2023-02-12T03:45:26;102618.84;;;7.22;100.00
55070;BME280;40967;52.070;8.596;2023-02-12T03:53:12;102627.78;;;7.23;100.00
55070;BME280;40967;52.070;8.596;2023-02-12T03:55:41;102620.69;;;7.22;100.00
55070;BME280;40967;52.070;8.596;2023-02-12T03:58:09;102626.94;;;7.22;100.00
55070;BME280;40967;52.070;8.596;2023-02-12T04:00:38;102634.19;;;7.22;100.00
55070;BME280;40967;52.070;8.596;2023-02-12T04:03:05;102632.91;;;7.18;100.00
55070;BME280;40967;52.070;8.596;2023-02-12T04:05:31;102643.34;;;7.21;100.00
55070;BME280;40967;52.070;8.596;2023-02-12T04:07:57;102645.84;;;7.22;100.00
55070;BME280;40967;52.070;8.596;2023-02-12T04:10:37;102652.25;;;7.21;100.00
55070;BME280;40967;52.070;8.596;2023-02-12T04:15:44;102652.44;;;7.20;100.00
55070;BME280;40967;52.070;8.596;2023-02-12T04:18:19;102662.22;;;7.21;100.00
55070;BME280;40967;52.070;8.596;2023-02-12T04:24:05;102669.53;;;7.27;100.00
55070;BME280;40967;52.070;8.596;2023-02-12T04:27:15;102669.34;;;7.28;100.00
55070;BME280;40967;52.070;8.596;2023-02-12T04:29:54;102672.88;;;7.29;100.00
55070;BME280;40967;52.070;8.596;2023-02-12T04:32:32;102666.63;;;7.28;100.00
55070;BME280;40967;52.070;8.596;2023-02-12T04:35:18;102690.13;;;7.28;100.00
55070;BME280;40967;52.070;8.596;2023-02-12T04:37:54;102691.59;;;7.30;100.00
55070;BME280;40967;52.070;8.596;2023-02-12T04:40:22;102691.13;;;7.27;100.00
55070;BME280;40967;52.070;8.596;2023-02-12T04:42:49;102695.88;;;7.25;100.00
55070;BME280;40967;52.070;8.596;2023-02-12T04:45:22;102698.44;;;7.26;100.00
55070;BME280;40967;52.070;8.596;2023-02-12T04:47:49;102695.88;;;7.25;100.00
55070;BME280;40967;52.070;8.596;2023-02-12T04:50:14;102700.69;;;7.23;100.00
55070;BME280;40967;52.070;8.596;2023-02-12T04:52:40;102700.22;;;7.19;100.00
55070;BME280;40967;52.070;8.596;2023-02-12T04:55:06;102702.72;;;7.21;100.00
55070;BME280;40967;52.070;8.596;2023-02-12T04:57:31;102695.84;;;7.18;100.00
55070;BME280;40967;52.070;8.596;2023-02-12T04:59:57;102699.38;;;7.19;100.00
55070;BME280;40967;52.070;8.596;2023-02-12T05:02:22;102689.16;;;7.14;100.00
55070;BME280;40967;52.070;8.596;2023-02-12T05:04:49;102693.53;;;7.15;100.00
55070;BME280;40967;52.070;8.596;2023-02-12T05:07:14;102697.44;;;7.13;100.00
55070;BME280;40967;52.070;8.596;2023-02-12T05:09:40;102685.94;;;7.04;100.00
55070;BME280;40967;52.070;8.596;2023-02-12T05:12:06;102690.78;;;7.09;100.00
55070;BME280;40967;52.070;8.596;2023-02-12T05:14:31;102687.44;;;7.07;100.00
55070;BME280;40967;52.070;8.596;2023-02-12T05:16:57;102690.78;;;7.09;100.00
55070;BME280;40967;52.070;8.596;2023-02-12T05:19:22;102693.28;;;7.10;100.00
55070;BME280;40967;52.070;8.596;2023-02-12T05:21:49;102694.09;;;7.11;100.00
55070;BME280;40967;52.070;8.596;2023-02-12T05:24:15;102688.69;;;7.11;100.00
55070;BME280;40967;52.070;8.596;2023-02-12T05:26:40;102695.59;;;7.13;100.00
55070;BME280;40967;52.070;8.596;2023-02-12T05:29:06;102700.16;;;7.13;100.00
55070;BME280;40967;52.070;8.596;2023-02-12T05:31:31;102687.25;;;7.08;100.00
55070;BME280;40967;52.070;8.596;2023-02-12T05:33:57;102687.03;;;7.10;100.00
55070;BME280;40967;52.070;8.596;2023-02-12T05:36:23;102690.13;;;7.07;100.00
55070;BME280;40967;52.070;8.596;2023-02-12T05:38:50;102681.16;;;7.00;100.00
55070;BME280;40967;52.070;8.596;2023-02-12T05:41:19;102692.19;;;7.05;100.00
55070;BME280;40967;52.070;8.596;2023-02-12T05:43:45;102679.09;;;7.02;100.00
55070;BME280;40967;52.070;8.596;2023-02-12T05:46:11;102694.06;;;7.04;100.00
55070;BME280;40967;52.070;8.596;2023-02-12T05:48:37;102686.78;;;7.05;100.00
55070;BME280;40967;52.070;8.596;2023-02-12T05:51:09;102692.19;;;7.05;100.00
55070;BME280;40967;52.070;8.596;2023-02-12T05:53:36;102686.16;;;7.03;100.00
55070;BME280;40967;52.070;8.596;2023-02-12T05:56:08;102696.38;;;7.07;100.00
55070;BME280;40967;52.070;8.596;2023-02-12T05:58:35;102698.25;;;7.07;100.00
55070;BME280;40967;52.070;8.596;2023-02-12T06:01:00;102688.44;;;7.06;100.00
55070;BME280;40967;52.070;8.596;2023-02-12T06:03:26;102686.16;;;7.03;100.00
55070;BME280;40967;52.070;8.596;2023-02-12T06:05:52;102684.28;;;7.03;100.00
55070;BME280;40967;52.070;8.596;2023-02-12T06:08:18;102686.59;;;7.06;100.00
55070;BME280;40967;52.070;8.596;2023-02-12T06:10:43;102691.34;;;7.04;100.00
55070;BME280;40967;52.070;8.596;2023-02-12T06:13:08;102681.16;;;7.00;100.00
55070;BME280;40967;52.070;8.596;2023-02-12T06:15:37;102688.44;;;7.06;100.00
55070;BME280;40967;52.070;8.596;2023-02-12T06:18:02;102692.84;;;7.07;100.00
55070;BME280;40967;52.070;8.596;2023-02-12T06:20:28;102696.81;;;7.11;100.00
55070;BME280;40967;52.070;8.596;2023-02-12T06:22:53;102699.50;;;7.11;100.00
55070;BME280;40967;52.070;8.596;2023-02-12T06:25:19;102692.84;;;7.07;100.00
55070;BME280;40967;52.070;8.596;2023-02-12T06:27:44;102690.13;;;7.07;100.00
55070;BME280;40967;52.070;8.596;2023-02-12T06:30:10;102688.19;;;7.01;100.00
55070;BME280;40967;52.070;8.596;2023-02-12T06:32:36;102688.78;;;6.96;100.00
55070;BME280;40967;52.070;8.596;2023-02-12T06:35:01;102697.53;;;6.98;100.00
55070;BME280;40967;52.070;8.596;2023-02-12T06:37:26;102699.19;;;6.99;100.00
55070;BME280;40967;52.070;8.596;2023-02-12T06:39:52;102699.41;;;6.98;100.00
55070;BME280;40967;52.070;8.596;2023-02-12T06:42:17;102704.16;;;6.96;100.00
55070;BME280;40967;52.070;8.596;2023-02-12T06:44:43;102703.88;;;6.90;100.00
55070;BME280;40967;52.070;8.596;2023-02-12T06:47:09;102709.69;;;6.87;100.00
55070;BME280;40967;52.070;8.596;2023-02-12T06:49:35;102705.47;;;6.85;100.00
55070;BME280;40967;52.070;8.596;2023-02-12T06:52:00;102700.22;;;6.77;100.00
55070;BME280;40967;52.070;8.596;2023-02-12T06:54:45;102715.00;;;6.81;100.00
55070;BME280;40967;52.070;8.596;2023-02-12T06:57:22;102714.56;;;6.77;100.00
55070;BME280;40967;52.070;8.596;2023-02-12T06:59:48;102720.31;;;6.74;100.00
55070;BME280;40967;52.070;8.596;2023-02-12T07:02:14;102706.50;;;6.63;100.00
55070;BME280;40967;52.070;8.596;2023-02-12T07:04:39;102726.94;;;6.72;100.00
55070;BME280;40967;52.070;8.596;2023-02-12T07:07:05;102721.44;;;6.65;100.00
55070;BME280;40967;52.070;8.596;2023-02-12T07:09:31;102733.53;;;6.69;100.00
55070;BME280;40967;52.070;8.596;2023-02-12T07:11:57;102727.94;;;6.71;100.00
55070;BME280;40967;52.070;8.596;2023-02-12T07:14:23;102733.09;;;6.66;100.00
55070;BME280;40967;52.070;8.596;2023-02-12T07:16:49;102742.94;;;6.73;100.00
55070;BME280;40967;52.070;8.596;2023-02-12T07:19:21;102742.09;;;6.73;100.00
55070;BME280;40967;52.070;8.596;2023-02-12T07:21:56;102739.97;;;6.68;100.00
55070;BME280;40967;52.070;8.596;2023-02-12T07:27:38;102754.19;;;6.77;100.00
55070;BME280;40967;52.070;8.596;2023-02-12T07:30:04;102763.75;;;6.79;100.00
55070;BME280;40967;52.070;8.596;2023-02-12T07:32:33;102766.63;;;6.78;100.00
55070;BME280;40967;52.070;8.596;2023-02-12T07:34:58;102757.44;;;6.72;100.00
55070;BME280;40967;52.070;8.596;2023-02-12T07:37:24;102778.06;;;6.80;100.00
55070;BME280;40967;52.070;8.596;2023-02-12T07:39:50;102766.19;;;6.74;100.00
55070;BME280;40967;52.070;8.596;2023-02-12T07:42:16;102773.34;;;6.82;100.00
55070;BME280;40967;52.070;8.596;2023-02-12T07:44:42;102775.19;;;6.81;100.00
55070;BME280;40967;52.070;8.596;2023-02-12T07:47:07;102778.16;;;6.86;100.00
55070;BME280;40967;52.070;8.596;2023-02-12T07:49:33;102784.38;;;6.87;100.00
55070;BME280;40967;52.070;8.596;2023-02-12T07:51:58;102781.50;;;6.88;100.00
55070;BME280;40967;52.070;8.596;2023-02-12T07:54:24;102774.25;;;6.89;100.00
55070;BME280;40967;52.070;8.596;2023-02-12T07:56:50;102773.84;;;6.92;100.00
55070;BME280;40967;52.070;8.596;2023-02-12T07:59:18;102773.59;;;6.87;100.00
55070;BME280;40967;52.070;8.596;2023-02-12T08:01:48;102784.25;;;6.95;100.00
55070;BME280;40967;52.070;8.596;2023-02-12T08:04:16;102767.34;;;6.86;100.00
55070;BME280;40967;52.070;8.596;2023-02-12T08:06:44;102782.41;;;6.96;100.00
55070;BME280;40967;52.070;8.596;2023-02-12T08:09:13;102773.19;;;6.90;100.00
55070;BME280;40967;52.070;8.596;2023-02-12T08:11:41;102792.81;;;6.99;100.00
55070;BME280;40967;52.070;8.596;2023-02-12T08:14:10;102786.22;;;7.01;100.00
55070;BME280;40967;52.070;8.596;2023-02-12T08:16:38;102789.75;;;7.02;100.00
55070;BME280;40967;52.070;8.596;2023-02-12T08:19:04;102771.75;;;6.87;100.00
55070;BME280;40967;52.070;8.596;2023-02-12T08:21:30;102796.16;;;7.01;100.00
55070;BME280;40967;52.070;8.596;2023-02-12T08:23:57;102799.97;;;7.06;100.00
55070;BME280;40967;52.070;8.596;2023-02-12T08:26:28;102803.50;;;7.07;100.00
55070;BME280;40967;52.070;8.596;2023-02-12T08:29:11;102812.25;;;7.09;100.00
55070;BME280;40967;52.070;8.596;2023-02-12T08:31:41;102814.31;;;7.07;100.00
55070;BME280;40967;52.070;8.596;2023-02-12T08:34:20;102813.25;;;7.08;100.00
55070;BME280;40967;52.070;8.596;2023-02-12T08:36:51;102807.22;;;7.06;100.00
55070;BME280;40967;52.070;8.596;2023-02-12T08:39:24;102813.25;;;7.08;100.00
55070;BME280;40967;52.070;8.596;2023-02-12T08:41:53;102815.22;;;7.14;100.00
55070;BME280;40967;52.070;8.596;2023-02-12T08:44:21;102822.06;;;7.16;100.00
55070;BME280;40967;52.070;8.596;2023-02-12T08:46:49;102823.56;;;7.19;100.00
55070;BME280;40967;52.070;8.596;2023-02-12T08:49:20;102819.63;;;7.21;100.00
55070;BME280;40967;52.070;8.596;2023-02-12T08:51:48;102817.34;;;7.18;100.00
55070;BME280;40967;52.070;8.596;2023-02-12T08:54:22;102823.63;;;7.25;100.00
55070;BME280;40967;52.070;8.596;2023-02-12T08:56:49;102820.34;;;7.30;100.00
55070;BME280;40967;52.070;8.596;2023-02-12T08:59:15;102829.75;;;7.34;100.00
55070;BME280;40967;52.070;8.596;2023-02-12T09:01:44;102815.78;;;7.30;100.00
55070;BME280;40967;52.070;8.596;2023-02-12T09:04:22;102831.03;;;7.38;100.00
55070;BME280;40967;52.070;8.596;2023-02-12T09:06:48;102832.25;;;7.35;100.00
55070;BME280;40967;52.070;8.596;2023-02-12T09:09:14;102831.81;;;7.32;100.00
55070;BME280;40967;52.070;8.596;2023-02-12T09:11:40;102831.44;;;7.35;100.00
55070;BME280;40967;52.070;8.596;2023-02-12T09:14:09;102834.94;;;7.35;100.00
55070;BME280;40967;52.070;8.596;2023-02-12T09:16:37;102842.59;;;7.32;100.00
55070;BME280;40967;52.070;8.596;2023-02-12T09:19:07;102825.03;;;7.21;100.00
55070;BME280;40967;52.070;8.596;2023-02-12T09:21:33;102811.88;;;7.12;100.00
55070;BME280;40967;52.070;8.596;2023-02-12T09:24:00;102847.00;;;7.33;100.00
55070;BME280;40967;52.070;8.596;2023-02-12T09:26:26;102852.00;;;7.36;100.00
55070;BME280;40967;52.070;8.596;2023-02-12T09:28:52;102846.59;;;7.36;100.00
55070;BME280;40967;52.070;8.596;2023-02-12T09:31:29;102844.81;;;7.43;100.00
55070;BME280;40967;52.070;8.596;2023-02-12T09:34:05;102846.66;;;7.42;100.00
55070;BME280;40967;52.070;8.596;2023-02-12T09:36:32;102854.41;;;7.45;100.00
55070;BME280;40967;52.070;8.596;2023-02-12T09:38:57;102849.00;;;7.45;100.00
55070;BME280;40967;52.070;8.596;2023-02-12T09:49:16;102858.25;;;7.57;100.00
55070;BME280;40967;52.070;8.596;2023-02-12T09:51:47;102850.72;;;7.53;100.00
55070;BME280;40967;52.070;8.596;2023-02-12T09:54:18;102862.22;;;7.61;100.00
55070;BME280;40967;52.070;8.596;2023-02-12T09:56:54;102858.72;;;7.61;100.00
55070;BME280;40967;52.070;8.596;2023-02-12T09:59:40;102863.91;;;7.62;100.00
55070;BME280;40967;52.070;8.596;2023-02-12T10:02:13;102866.63;;;7.62;100.00
55070;BME280;40967;52.070;8.596;2023-02-12T10:04:44;102866.22;;;7.65;100.00
55070;BME280;40967;52.070;8.596;2023-02-12T10:10:43;102863.97;;;7.69;100.00
55070;BME280;40967;52.070;8.596;2023-02-12T10:13:23;102859.66;;;7.74;100.00
55070;BME280;40967;52.070;8.596;2023-02-12T10:16:09;102862.94;;;7.70;100.00
55070;BME280;40967;52.070;8.596;2023-02-12T10:26:34;102861.66;;;7.66;100.00
55070;BME280;40967;52.070;8.596;2023-02-12T10:29:13;102856.31;;;7.72;100.00
55070;BME280;40967;52.070;8.596;2023-02-12T10:31:44;102853.66;;;7.79;100.00
55070;BME280;40967;52.070;8.596;2023-02-12T10:34:22;102849.59;;;7.89;100.00
55070;BME280;40967;52.070;8.596;2023-02-12T10:36:50;102859.69;;;8.02;100.00
55070;BME280;40967;52.070;8.596;2023-02-12T10:42:25;102864.63;;;8.20;100.00
55070;BME280;40967;52.070;8.596;2023-02-12T10:44:56;102865.53;;;8.27;100.00
55070;BME280;40967;52.070;8.596;2023-02-12T10:47:23;102854.75;;;8.33;100.00
55070;BME280;40967;52.070;8.596;2023-02-12T10:49:59;102861.88;;;8.41;100.00
55070;BME280;40967;52.070;8.596;2023-02-12T10:52:38;102853.34;;;8.37;100.00
55070;BME280;40967;52.070;8.596;2023-02-12T10:55:31;102854.34;;;8.36;100.00
55070;BME280;40967;52.070;8.596;2023-02-12T10:57:58;102867.63;;;8.31;100.00
55070;BME280;40967;52.070;8.596;2023-02-12T11:00:35;102856.72;;;8.18;100.00
55070;BME280;40967;52.070;8.596;2023-02-12T11:03:18;102848.16;;;8.15;100.00
55070;BME280;40967;52.070;8.596;2023-02-12T11:05:45;102848.06;;;8.08;100.00
55070;BME280;40967;52.070;8.596;2023-02-12T11:10:52;102846.06;;;8.17;100.00
55070;BME280;40967;52.070;8.596;2023-02-12T11:13:23;102849.75;;;8.09;100.00
55070;BME280;40967;52.070;8.596;2023-02-12T11:15:50;102855.19;;;8.09;100.00
55070;BME280;40967;52.070;8.596;2023-02-12T11:18:27;102856.25;;;8.15;100.00
55070;BME280;40967;52.070;8.596;2023-02-12T11:21:08;102847.75;;;8.18;100.00
55070;BME280;40967;52.070;8.596;2023-02-12T11:23:35;102848.00;;;8.23;100.00
55070;BME280;40967;52.070;8.596;2023-02-12T11:28:57;102842.41;;;8.24;100.00
55070;BME280;40967;52.070;8.596;2023-02-12T11:31:27;102842.53;;;8.16;100.00
55070;BME280;40967;52.070;8.596;2023-02-12T11:36:41;102822.50;;;8.04;100.00
55070;BME280;40967;52.070;8.596;2023-02-12T11:39:23;102813.09;;;8.00;100.00
55070;BME280;40967;52.070;8.596;2023-02-12T11:41:54;102825.84;;;8.06;100.00
55070;BME280;40967;52.070;8.596;2023-02-12T11:44:27;102817.53;;;8.07;100.00
55070;BME280;40967;52.070;8.596;2023-02-12T11:47:00;102821.94;;;8.15;100.00
55070;BME280;40967;52.070;8.596;2023-02-12T11:49:33;102823.91;;;8.28;100.00
55070;BME280;40967;52.070;8.596;2023-02-12T11:52:03;102829.19;;;8.36;100.00
55070;BME280;40967;52.070;8.596;2023-02-12T11:54:32;102830.66;;;8.38;100.00
55070;BME280;40967;52.070;8.596;2023-02-12T11:56:59;102824.59;;;8.36;100.00
55070;BME280;40967;52.070;8.596;2023-02-12T11:59:36;102823.59;;;8.44;100.00
55070;BME280;40967;52.070;8.596;2023-02-12T12:02:22;102823.56;;;8.37;100.00
55070;BME280;40967;52.070;8.596;2023-02-12T12:04:51;102821.44;;;8.33;100.00
55070;BME280;40967;52.070;8.596;2023-02-12T12:07:27;102814.81;;;8.35;100.00
55070;BME280;40967;52.070;8.596;2023-02-12T12:10:04;102821.88;;;8.36;100.00
55070;BME280;40967;52.070;8.596;2023-02-12T12:12:42;102802.63;;;8.18;100.00
55070;BME280;40967;52.070;8.596;2023-02-12T12:15:22;102813.88;;;8.22;100.00
55070;BME280;40967;52.070;8.596;2023-02-12T12:20:55;102811.31;;;8.41;100.00
55070;BME280;40967;52.070;8.596;2023-02-12T12:23:34;102813.81;;;8.43;100.00
55070;BME280;40967;52.070;8.596;2023-02-12T12:26:06;102811.38;;;8.48;100.00
55070;BME280;40967;52.070;8.596;2023-02-12T12:28:56;102817.38;;;8.50;100.00
55070;BME280;40967;52.070;8.596;2023-02-12T12:31:29;102807.41;;;8.50;100.00
55070;BME280;40967;52.070;8.596;2023-02-12T12:34:17;102791.59;;;8.47;100.00
55070;BME280;40967;52.070;8.596;2023-02-12T13:00:15;102779.47;;;8.43;100.00
55070;BME280;40967;52.070;8.596;2023-02-12T13:13:49;102771.91;;;8.73;100.00
55070;BME280;40967;52.070;8.596;2023-02-12T13:16:45;102755.44;;;8.68;100.00
55070;BME280;40967;52.070;8.596;2023-02-12T13:19:38;102764.19;;;8.63;100.00
55070;BME280;40967;52.070;8.596;2023-02-12T13:24:50;102767.66;;;8.51;100.00
55070;BME280;40967;52.070;8.596;2023-02-12T13:27:27;102761.63;;;8.55;100.00
55070;BME280;40967;52.070;8.596;2023-02-12T13:30:03;102766.47;;;8.66;100.00
55070;BME280;40967;52.070;8.596;2023-02-12T13:32:40;102765.91;;;8.77;100.00
55070;BME280;40967;52.070;8.596;2023-02-12T13:35:15;102767.81;;;8.90;100.00
55070;BME280;40967;52.070;8.596;2023-02-12T13:37:46;102762.44;;;9.03;100.00
55070;BME280;40967;52.070;8.596;2023-02-12T13:40:18;102763.06;;;9.11;100.00
55070;BME280;40967;52.070;8.596;2023-02-12T13:42:55;102757.44;;;9.19;100.00
55070;BME280;40967;52.070;8.596;2023-02-12T13:53:26;102754.97;;;9.51;100.00
55070;BME280;40967;52.070;8.596;2023-02-12T13:56:14;102748.53;;;9.58;100.00
55070;BME280;40967;52.070;8.596;2023-02-12T13:58:52;102751.44;;;9.63;100.00
55070;BME280;40967;52.070;8.596;2023-02-12T14:01:43;102751.44;;;9.70;100.00
55070;BME280;40967;52.070;8.596;2023-02-12T14:07:07;102759.56;;;9.83;100.00
55070;BME280;40967;52.070;8.596;2023-02-12T14:12:09;102751.22;;;9.84;100.00
55070;BME280;40967;52.070;8.596;2023-02-12T14:14:47;102750.16;;;9.85;100.00
55070;BME280;40967;52.070;8.596;2023-02-12T14:27:51;102759.94;;;9.99;99.19
55070;BME280;40967;52.070;8.596;2023-02-12T14:30:36;102761.41;;;10.02;98.87
55070;BME280;40967;52.070;8.596;2023-02-12T14:35:36;102759.13;;;9.92;99.57
55070;BME280;40967;52.070;8.596;2023-02-12T14:41:22;102751.63;;;9.88;98.77
55070;BME280;40967;52.070;8.596;2023-02-12T14:46:56;102755.38;;;9.93;98.03
55070;BME280;40967;52.070;8.596;2023-02-12T14:49:26;102759.53;;;9.96;97.77
55070;BME280;40967;52.070;8.596;2023-02-12T14:52:13;102752.25;;;9.96;98.17
55070;BME280;40967;52.070;8.596;2023-02-12T14:55:04;102741.41;;;9.96;97.82
55070;BME280;40967;52.070;8.596;2023-02-12T14:57:36;102738.06;;;9.94;97.54
55070;BME280;40967;52.070;8.596;2023-02-12T15:02:44;102746.81;;;9.96;97.43
55070;BME280;40967;52.070;8.596;2023-02-12T15:05:18;102743.03;;;9.97;97.60
55070;BME280;40967;52.070;8.596;2023-02-12T15:07:49;102744.31;;;9.95;97.71
55070;BME280;40967;52.070;8.596;2023-02-12T15:10:22;102742.22;;;9.97;97.95
55070;BME280;40967;52.070;8.596;2023-02-12T15:13:01;102736.41;;;9.93;98.31
55070;BME280;40967;52.070;8.596;2023-02-12T15:15:46;102743.88;;;9.98;98.42
55070;BME280;40967;52.070;8.596;2023-02-12T15:21:27;102742.84;;;9.92;98.64
55070;BME280;40967;52.070;8.596;2023-02-12T15:24:03;102746.63;;;9.91;98.92
55070;BME280;40967;52.070;8.596;2023-02-12T15:26:32;102740.16;;;9.86;98.07